Terminal Aerodrome Forecast
Issued by NWS

Home | Current Version | Previous Version | Text Only | Print | Product List | Glossary On
Versions: 1 2 3 4 5 6 7 8 9 10 11 12 13 14 15 16
000
FTUS44 KMAF 201724
TAFINK
TAF
KINK 201724Z 2018/2118 26020G30KT P6SM FEW150
     FM210000 25013G23KT P6SM BKN100
     FM210300 22011KT P6SM BKN100=

USA.gov is the U.S. government's official web portal to all federal, state and local government web resources and services.